createdAt,value
2022-07-26T00:00:45.021Z,86.16
2022-07-26T00:01:45.075Z,85.86
2022-07-26T00:02:47.648Z,85.96
2022-07-26T00:03:44.943Z,86.16
2022-07-26T00:04:44.926Z,86.16
2022-07-26T00:05:47.899Z,86.36
2022-07-26T00:06:47.962Z,86.16
2022-07-26T00:07:44.881Z,86.26
2022-07-26T00:08:44.894Z,86.36
2022-07-26T00:09:48.218Z,86.36
2022-07-26T00:10:44.855Z,86.57
2022-07-26T00:11:44.860Z,86.66
2022-07-26T00:12:44.853Z,86.36
2022-07-26T00:13:44.793Z,86.26
2022-07-26T00:14:44.783Z,86.46
2022-07-26T00:15:44.784Z,86.57
2022-07-26T00:16:44.871Z,86.57
2022-07-26T00:17:44.745Z,86.66
2022-07-26T00:18:44.794Z,86.91
2022-07-26T00:19:44.709Z,87.01
2022-07-26T00:20:44.703Z,87.31
2022-07-26T00:21:44.697Z,87.41
2022-07-26T00:22:44.677Z,87.51
2022-07-26T00:23:44.657Z,87.51
2022-07-26T00:24:44.691Z,87.82
2022-07-26T00:25:47.629Z,87.82
2022-07-26T00:26:47.633Z,88.06
2022-07-26T00:27:44.601Z,88.16
2022-07-26T00:28:44.608Z,88.26
2022-07-26T00:29:44.569Z,88.56
2022-07-26T00:30:44.631Z,88.76
2022-07-26T00:31:44.575Z,88.86
2022-07-26T00:32:44.533Z,88.96
2022-07-26T00:33:44.531Z,89.06
2022-07-26T00:34:44.511Z,89.21
2022-07-26T00:35:44.519Z,89.41
2022-07-26T00:36:44.512Z,89.41
2022-07-26T00:37:44.479Z,89.31
2022-07-26T00:38:44.464Z,89.21
2022-07-26T00:39:44.442Z,89.41
2022-07-26T00:40:44.437Z,89.41
2022-07-26T00:41:44.454Z,89.51
2022-07-26T00:42:44.466Z,89.81
2022-07-26T00:43:44.409Z,90.01
2022-07-26T00:44:44.380Z,90.22
2022-07-26T00:45:47.399Z,90.32
2022-07-26T00:46:47.378Z,90.42
2022-07-26T00:47:44.341Z,90.52
2022-07-26T00:48:44.409Z,90.52
2022-07-26T00:49:44.310Z,90.52
2022-07-26T00:50:44.302Z,90.62
2022-07-26T00:51:46.572Z,90.72
2022-07-26T00:52:44.282Z,90.82
2022-07-26T00:53:44.261Z,90.82
2022-07-26T00:54:44.303Z,90.92
2022-07-26T00:55:44.242Z,90.92
2022-07-26T00:56:44.221Z,91.02
2022-07-26T00:57:44.204Z,91.13
2022-07-26T00:58:44.527Z,90.92
2022-07-26T00:59:44.184Z,91.02
2022-07-26T01:00:44.201Z,91.22
2022-07-26T01:01:44.244Z,91.53
2022-07-26T01:02:44.221Z,91.93
2022-07-26T01:03:44.124Z,92.13
2022-07-26T01:04:44.114Z,92.29
2022-07-26T01:05:47.126Z,92.49
2022-07-26T01:06:47.096Z,92.59
2022-07-26T01:07:44.070Z,92.79
2022-07-26T01:08:44.058Z,92.83
2022-07-26T01:09:44.036Z,93.34
2022-07-26T01:10:44.030Z,93.54
2022-07-26T01:11:44.076Z,93.95
2022-07-26T01:12:44.000Z,93.74
2022-07-26T01:13:43.989Z,93.95
2022-07-26T01:14:43.970Z,94.05
2022-07-26T01:15:44.001Z,94.25
2022-07-26T01:16:43.953Z,93.85
2022-07-26T01:17:44.000Z,94.05
2022-07-26T01:18:43.922Z,94.45
2022-07-26T01:19:43.909Z,94.55
2022-07-26T01:20:43.914Z,93.95
2022-07-26T01:21:43.884Z,94.05
2022-07-26T01:22:43.875Z,94.15
2022-07-26T01:23:43.922Z,93.85
2022-07-26T01:24:43.843Z,93.95
2022-07-26T01:25:48.729Z,94.05
2022-07-26T01:26:46.835Z,94.15
2022-07-26T01:27:43.804Z,94.15
2022-07-26T01:28:43.785Z,94.15
2022-07-26T01:29:43.815Z,93.85
2022-07-26T01:30:43.767Z,93.95
2022-07-26T01:31:43.777Z,93.95
2022-07-26T01:32:43.736Z,93.65
2022-07-26T01:33:43.726Z,93.34
2022-07-26T01:34:43.719Z,93.34
2022-07-26T01:35:43.769Z,93.34
2022-07-26T01:36:43.689Z,93.44
2022-07-26T01:37:43.669Z,93.44
2022-07-26T01:38:43.672Z,93.34
2022-07-26T01:39:43.642Z,93.44
2022-07-26T01:40:43.629Z,93.44
2022-07-26T01:41:43.641Z,93.54
2022-07-26T01:42:43.607Z,93.34
2022-07-26T01:43:43.617Z,93.04
2022-07-26T01:44:43.572Z,93.04
2022-07-26T01:45:46.670Z,93.24
2022-07-26T01:46:46.564Z,93.44
2022-07-26T01:47:43.566Z,93.54
2022-07-26T01:48:43.595Z,93.54
2022-07-26T01:49:43.507Z,93.44
2022-07-26T01:50:43.502Z,93.44
2022-07-26T01:51:43.486Z,93.44
2022-07-26T01:52:43.521Z,93.34
2022-07-26T01:53:43.457Z,93.34
2022-07-26T01:54:43.446Z,93.44
2022-07-26T01:55:43.457Z,93.54
2022-07-26T01:56:43.428Z,93.34
2022-07-26T01:57:43.407Z,93.14
2022-07-26T01:58:43.568Z,93.14
2022-07-26T01:59:43.378Z,93.14
2022-07-26T02:00:43.370Z,93.14
2022-07-26T02:01:43.391Z,93.34
2022-07-26T02:02:43.408Z,93.49
2022-07-26T02:03:43.330Z,93.59
2022-07-26T02:04:43.341Z,93.79
2022-07-26T02:05:46.311Z,93.89
2022-07-26T02:06:46.313Z,93.89
2022-07-26T02:07:44.589Z,93.99
2022-07-26T02:08:43.279Z,93.99
2022-07-26T02:09:43.253Z,94.19
2022-07-26T02:10:43.243Z,94.39
2022-07-26T02:11:43.231Z,94.59
2022-07-26T02:12:43.225Z,94.70
2022-07-26T02:13:43.253Z,94.70
2022-07-26T02:14:43.197Z,94.70
2022-07-26T02:15:43.218Z,94.70
2022-07-26T02:16:43.173Z,94.90
2022-07-26T02:17:43.155Z,95.10
2022-07-26T02:18:43.144Z,95.20
2022-07-26T02:19:43.177Z,95.40
2022-07-26T02:20:43.123Z,95.50
2022-07-26T02:21:43.097Z,95.50
2022-07-26T02:22:43.088Z,95.65
2022-07-26T02:23:43.077Z,95.65
2022-07-26T02:24:43.068Z,95.75
2022-07-26T02:25:46.117Z,95.75
2022-07-26T02:26:46.064Z,95.75
2022-07-26T02:27:43.019Z,95.85
2022-07-26T02:28:43.021Z,95.85
2022-07-26T02:29:43.002Z,95.95
2022-07-26T02:30:42.981Z,96.05
2022-07-26T02:31:43.050Z,95.85
2022-07-26T02:32:43.973Z,95.95
2022-07-26T02:33:42.942Z,96.05
2022-07-26T02:34:42.938Z,96.15
2022-07-26T02:35:42.917Z,96.36
2022-07-26T02:36:42.998Z,96.45
2022-07-26T02:37:43.861Z,96.45
2022-07-26T02:38:42.885Z,96.45
2022-07-26T02:39:42.866Z,96.66
2022-07-26T02:40:42.859Z,96.86
2022-07-26T02:41:42.827Z,97.06
2022-07-26T02:42:42.859Z,97.16
2022-07-26T02:43:42.807Z,97.36
2022-07-26T02:44:42.797Z,97.47
2022-07-26T02:45:45.782Z,97.47
2022-07-26T02:46:46.854Z,97.56
2022-07-26T02:47:42.749Z,97.61
2022-07-26T02:48:42.812Z,97.61
2022-07-26T02:49:42.728Z,97.61
2022-07-26T02:50:42.722Z,97.81
2022-07-26T02:51:42.701Z,97.81
2022-07-26T02:52:42.690Z,97.91
2022-07-26T02:53:42.710Z,97.81
2022-07-26T02:54:42.663Z,97.81
2022-07-26T02:55:42.654Z,97.81
2022-07-26T02:56:42.667Z,97.71
2022-07-26T02:57:46.709Z,97.91
2022-07-26T02:58:42.624Z,97.91
2022-07-26T02:59:42.694Z,98.11
2022-07-26T03:00:42.594Z,97.91
2022-07-26T03:01:42.625Z,98.11
2022-07-26T03:02:42.673Z,98.32
2022-07-26T03:03:47.218Z,98.32
2022-07-26T03:04:43.583Z,98.32
2022-07-26T03:05:45.516Z,98.32
2022-07-26T03:06:45.529Z,98.47
2022-07-26T03:07:42.488Z,98.52
2022-07-26T03:08:42.477Z,98.47
2022-07-26T03:09:42.467Z,98.47
2022-07-26T03:10:42.478Z,98.47
2022-07-26T03:11:42.439Z,98.47
2022-07-26T03:12:42.429Z,98.47
2022-07-26T03:13:42.409Z,98.37
2022-07-26T03:14:42.398Z,98.37
2022-07-26T03:15:42.488Z,98.37
2022-07-26T03:16:42.380Z,98.47
2022-07-26T03:17:42.476Z,98.37
2022-07-26T03:18:42.356Z,98.17
2022-07-26T03:19:42.331Z,98.17
2022-07-26T03:20:42.377Z,98.17
2022-07-26T03:21:42.332Z,98.27
2022-07-26T03:22:42.326Z,98.27
2022-07-26T03:23:42.274Z,98.37
2022-07-26T03:24:42.321Z,98.37
2022-07-26T03:25:45.259Z,98.37
2022-07-26T03:26:45.257Z,98.47
2022-07-26T03:27:42.235Z,98.47
2022-07-26T03:28:42.217Z,98.47
2022-07-26T03:29:42.247Z,98.37
2022-07-26T03:30:42.217Z,98.27
2022-07-26T03:31:42.166Z,98.37
2022-07-26T03:32:42.158Z,98.47
2022-07-26T03:33:42.138Z,98.47
2022-07-26T03:34:42.138Z,98.53
2022-07-26T03:35:42.196Z,98.53
2022-07-26T03:36:42.112Z,98.58
2022-07-26T03:37:45.805Z,98.43
2022-07-26T03:38:42.080Z,98.27
2022-07-26T03:39:42.060Z,98.37
2022-07-26T03:40:42.052Z,98.33
2022-07-26T03:41:42.061Z,98.33
2022-07-26T03:42:42.136Z,98.22
2022-07-26T03:43:42.012Z,98.13
2022-07-26T03:44:42.003Z,97.72
2022-07-26T03:45:45.043Z,97.62
2022-07-26T03:46:45.097Z,97.62
2022-07-26T03:47:41.971Z,97.72
2022-07-26T03:48:42.012Z,97.82
2022-07-26T03:49:41.965Z,97.72
2022-07-26T03:50:41.933Z,97.72
2022-07-26T03:51:41.947Z,97.62
2022-07-26T03:52:41.906Z,97.62
2022-07-26T03:53:41.887Z,97.42
2022-07-26T03:54:41.916Z,97.32
2022-07-26T03:55:41.857Z,97.22
2022-07-26T03:56:41.852Z,97.22
2022-07-26T03:57:41.836Z,97.32
2022-07-26T03:58:41.845Z,97.32
2022-07-26T03:59:41.812Z,97.02
2022-07-26T04:00:41.836Z,97.12
2022-07-26T04:01:41.995Z,97.32
2022-07-26T04:02:41.832Z,97.32
2022-07-26T04:03:47.303Z,97.32
2022-07-26T04:04:42.740Z,97.12
2022-07-26T04:05:48.829Z,97.12
2022-07-26T04:06:44.763Z,97.22
2022-07-26T04:07:41.701Z,96.81
2022-07-26T04:08:41.692Z,96.81
2022-07-26T04:09:41.672Z,96.61
2022-07-26T04:10:41.662Z,96.41
2022-07-26T04:11:41.692Z,96.41
2022-07-26T04:12:41.634Z,96.41
2022-07-26T04:13:41.655Z,96.61
2022-07-26T04:14:41.606Z,96.71
2022-07-26T04:15:41.595Z,96.71
2022-07-26T04:16:43.791Z,96.81
2022-07-26T04:17:41.614Z,96.71
2022-07-26T04:18:41.568Z,96.92
2022-07-26T04:19:41.547Z,97.02
2022-07-26T04:20:41.536Z,97.12
2022-07-26T04:21:41.526Z,96.71
2022-07-26T04:22:41.538Z,96.97
2022-07-26T04:23:41.500Z,96.87
2022-07-26T04:24:41.479Z,96.67
2022-07-26T04:25:44.470Z,96.77
2022-07-26T04:26:44.459Z,96.77
2022-07-26T04:27:41.471Z,96.77
2022-07-26T04:28:41.428Z,96.47
2022-07-26T04:29:41.441Z,96.47
2022-07-26T04:30:41.491Z,96.36
2022-07-26T04:31:41.391Z,96.16
2022-07-26T04:32:41.372Z,96.12
2022-07-26T04:33:41.423Z,95.72
2022-07-26T04:34:41.347Z,95.27
2022-07-26T04:35:41.332Z,94.87
2022-07-26T04:36:41.324Z,94.56
2022-07-26T04:37:41.321Z,94.42
2022-07-26T04:38:41.296Z,94.12
2022-07-26T04:39:41.309Z,93.61
2022-07-26T04:40:41.265Z,93.21
2022-07-26T04:41:41.316Z,93.11
2022-07-26T04:42:41.235Z,92.91
2022-07-26T04:43:41.227Z,93.01
2022-07-26T04:44:41.218Z,93.26
2022-07-26T04:45:44.285Z,94.06
2022-07-26T04:46:44.954Z,94.46
2022-07-26T04:47:41.329Z,94.96
2022-07-26T04:48:41.257Z,95.31
2022-07-26T04:49:41.160Z,95.61
2022-07-26T04:50:41.139Z,95.61
2022-07-26T04:51:41.120Z,95.81
2022-07-26T04:52:41.111Z,96.26
2022-07-26T04:53:41.121Z,96.47
2022-07-26T04:54:41.081Z,96.77
2022-07-26T04:55:41.093Z,97.17
2022-07-26T04:56:41.083Z,97.47
2022-07-26T04:57:41.099Z,97.72
2022-07-26T04:58:41.056Z,97.72
2022-07-26T04:59:41.035Z,98.13
2022-07-26T05:01:08.550Z,98.53
2022-07-26T05:01:42.036Z,98.98
2022-07-26T05:02:41.013Z,98.98
2022-07-26T05:03:41.027Z,98.98
2022-07-26T05:04:40.945Z,98.98
2022-07-26T05:05:43.943Z,99.18
2022-07-26T05:06:43.940Z,99.48
2022-07-26T05:07:40.907Z,99.38
2022-07-26T05:08:40.896Z,99.99
2022-07-26T05:09:40.907Z,99.99
2022-07-26T05:10:40.867Z,99.99
2022-07-26T05:11:40.859Z,99.99
2022-07-26T05:12:40.841Z,99.99
2022-07-26T05:13:40.860Z,99.99
2022-07-26T05:14:40.810Z,99.99
2022-07-26T05:15:42.762Z,99.99
2022-07-26T05:16:44.318Z,99.99
2022-07-26T05:17:41.770Z,99.99
2022-07-26T05:18:45.702Z,99.99
2022-07-26T05:19:44.856Z,99.99
2022-07-26T05:20:41.756Z,99.99
2022-07-26T05:21:40.722Z,99.99
2022-07-26T05:22:40.702Z,99.99
2022-07-26T05:23:40.691Z,99.99
2022-07-26T05:24:40.723Z,99.99
2022-07-26T05:25:43.717Z,99.38
2022-07-26T05:26:43.667Z,98.58
2022-07-26T05:27:40.634Z,98.47
2022-07-26T05:28:40.625Z,98.88
2022-07-26T05:29:40.615Z,98.78
2022-07-26T05:30:40.617Z,98.98
2022-07-26T05:31:40.629Z,98.68
2022-07-26T05:32:40.567Z,98.68
2022-07-26T05:33:40.559Z,98.52
2022-07-26T05:34:40.551Z,98.42
2022-07-26T05:35:40.559Z,98.32
2022-07-26T05:36:40.520Z,98.42
2022-07-26T05:37:40.517Z,98.62
2022-07-26T05:38:40.542Z,98.62
2022-07-26T05:39:40.481Z,98.72
2022-07-26T05:40:40.491Z,98.72
2022-07-26T05:41:40.453Z,98.52
2022-07-26T05:42:40.443Z,98.02
2022-07-26T05:43:41.581Z,97.71
2022-07-26T05:44:42.512Z,98.02
2022-07-26T05:45:43.481Z,98.07
2022-07-26T05:46:43.434Z,97.31
2022-07-26T05:47:40.374Z,97.01
2022-07-26T05:48:40.507Z,96.76
2022-07-26T05:49:40.860Z,96.76
2022-07-26T05:50:40.365Z,96.56
2022-07-26T05:51:40.316Z,96.15
2022-07-26T05:52:40.310Z,96.25
2022-07-26T05:53:40.295Z,96.05
2022-07-26T05:54:40.275Z,95.95
2022-07-26T05:55:40.304Z,95.85
2022-07-26T05:56:40.274Z,95.95
2022-07-26T05:57:40.256Z,96.15
2022-07-26T05:58:40.239Z,96.25
2022-07-26T05:59:40.217Z,96.56
2022-07-26T06:00:42.277Z,96.45
2022-07-26T06:01:40.189Z,96.25
2022-07-26T06:02:40.233Z,96.60
2022-07-26T06:03:40.160Z,97.01
2022-07-26T06:04:40.177Z,96.60
2022-07-26T06:05:43.191Z,96.60
2022-07-26T06:06:43.131Z,96.91
2022-07-26T06:07:40.114Z,97.31
2022-07-26T06:08:40.126Z,97.61
2022-07-26T06:09:40.087Z,97.51
2022-07-26T06:10:40.075Z,96.55
2022-07-26T06:11:40.092Z,96.85
2022-07-26T06:12:40.035Z,97.16
2022-07-26T06:13:40.040Z,97.16
2022-07-26T06:14:40.063Z,97.25
2022-07-26T06:15:40.057Z,96.04
2022-07-26T06:16:40.022Z,96.65
2022-07-26T06:17:39.978Z,97.36
2022-07-26T06:18:39.966Z,97.56
2022-07-26T06:19:44.275Z,97.96
2022-07-26T06:20:40.955Z,98.07
2022-07-26T06:21:39.927Z,97.96
2022-07-26T06:22:39.906Z,97.86
2022-07-26T06:23:39.899Z,97.76
2022-07-26T06:24:39.878Z,97.76
2022-07-26T06:25:42.913Z,97.96
2022-07-26T06:26:42.879Z,98.16
2022-07-26T06:27:39.843Z,98.07
2022-07-26T06:28:39.828Z,97.10
2022-07-26T06:29:39.821Z,97.30
2022-07-26T06:30:39.831Z,97.71
2022-07-26T06:31:39.909Z,97.96
2022-07-26T06:32:39.771Z,98.07
2022-07-26T06:33:39.769Z,97.86
2022-07-26T06:34:39.752Z,97.36
2022-07-26T06:35:39.882Z,97.51
2022-07-26T06:36:39.726Z,96.40
2022-07-26T06:37:39.759Z,95.65
2022-07-26T06:38:39.694Z,95.45
2022-07-26T06:39:39.686Z,94.25
2022-07-26T06:40:39.681Z,93.04
2022-07-26T06:41:39.656Z,92.99
2022-07-26T06:42:39.697Z,92.39
2022-07-26T06:43:39.636Z,91.85
2022-07-26T06:44:39.618Z,89.79
2022-07-26T06:45:42.661Z,89.48
2022-07-26T06:46:42.605Z,89.08
2022-07-26T06:47:39.578Z,89.18
2022-07-26T06:48:39.616Z,87.92
2022-07-26T06:49:40.550Z,88.12
2022-07-26T06:50:39.529Z,88.86
2022-07-26T06:51:39.529Z,89.06
2022-07-26T06:52:47.918Z,88.66
2022-07-26T06:53:39.510Z,88.40
2022-07-26T06:54:39.472Z,89.41
2022-07-26T06:55:39.462Z,90.72
2022-07-26T06:56:39.451Z,90.56
2022-07-26T06:57:44.840Z,91.27
2022-07-26T06:58:40.491Z,91.37
2022-07-26T06:59:39.435Z,91.87
2022-07-26T07:00:39.470Z,91.73
2022-07-26T07:01:55.551Z,91.63
2022-07-26T07:02:40.367Z,91.17
2022-07-26T07:03:39.356Z,91.57
2022-07-26T07:04:39.470Z,91.97
2022-07-26T07:05:45.330Z,92.88
2022-07-26T07:06:43.332Z,93.29
2022-07-26T07:07:39.297Z,93.63
2022-07-26T07:08:39.308Z,94.28
2022-07-26T07:09:39.268Z,93.82
2022-07-26T07:10:39.364Z,93.87
2022-07-26T07:11:39.248Z,94.57
2022-07-26T07:12:39.239Z,94.98
2022-07-26T07:13:39.222Z,95.58
2022-07-26T07:14:39.362Z,95.68
2022-07-26T07:15:39.261Z,95.48
2022-07-26T07:16:39.257Z,95.18
2022-07-26T07:17:39.171Z,95.23
2022-07-26T07:18:39.152Z,95.03
2022-07-26T07:19:39.142Z,94.48
2022-07-26T07:20:39.131Z,93.73
2022-07-26T07:21:39.157Z,93.53
2022-07-26T07:22:39.122Z,93.29
2022-07-26T07:23:39.093Z,93.69
2022-07-26T07:24:39.076Z,92.33
2022-07-26T07:25:44.889Z,91.33
2022-07-26T07:26:42.065Z,90.52
2022-07-26T07:27:39.096Z,90.16
2022-07-26T07:28:39.052Z,90.32
2022-07-26T07:29:39.017Z,90.11
2022-07-26T07:30:39.007Z,89.51
2022-07-26T07:31:48.977Z,90.01
2022-07-26T07:32:40.050Z,90.92
2022-07-26T07:33:52.460Z,90.62
2022-07-26T07:34:39.938Z,89.71
2022-07-26T07:35:38.977Z,89.91
2022-07-26T07:36:39.089Z,89.41
2022-07-26T07:37:53.571Z,88.60
2022-07-26T07:38:42.827Z,89.21
2022-07-26T07:39:38.968Z,89.61
2022-07-26T07:40:38.881Z,90.11
2022-07-26T07:41:38.860Z,90.48
2022-07-26T07:42:38.830Z,89.37
2022-07-26T07:43:38.813Z,90.53
2022-07-26T07:44:38.800Z,89.26
2022-07-26T07:45:41.781Z,88.30
2022-07-26T07:46:41.875Z,88.70
2022-07-26T07:47:38.761Z,89.31
2022-07-26T07:48:42.246Z,88.45
2022-07-26T07:49:39.733Z,88.00
2022-07-26T07:50:38.707Z,87.76
2022-07-26T07:51:38.725Z,87.25
2022-07-26T07:52:38.743Z,87.62
2022-07-26T07:53:38.666Z,85.40
2022-07-26T07:54:38.652Z,85.25
2022-07-26T07:55:41.482Z,84.65
2022-07-26T07:56:39.628Z,83.75
2022-07-26T07:57:38.617Z,83.65
2022-07-26T07:58:38.631Z,83.91
2022-07-26T07:59:39.191Z,84.01
2022-07-26T08:00:38.629Z,81.63
2022-07-26T08:01:40.052Z,81.77
2022-07-26T08:02:38.585Z,82.48
2022-07-26T08:03:39.399Z,82.88
2022-07-26T08:04:38.580Z,82.62
2022-07-26T08:05:41.500Z,82.98
2022-07-26T08:06:41.499Z,83.08
2022-07-26T08:07:38.471Z,83.25
2022-07-26T08:08:38.482Z,83.65
2022-07-26T08:09:42.930Z,82.94
2022-07-26T08:10:38.805Z,81.17
2022-07-26T08:11:39.424Z,82.48
2022-07-26T08:12:38.403Z,82.42
2022-07-26T08:13:38.394Z,82.48
2022-07-26T08:14:38.433Z,83.34
2022-07-26T08:15:39.164Z,82.58
2022-07-26T08:16:38.485Z,82.74
2022-07-26T08:17:40.913Z,82.30
2022-07-26T08:18:53.425Z,82.16
2022-07-26T08:19:41.706Z,81.82
2022-07-26T08:20:38.298Z,81.01
2022-07-26T08:21:38.341Z,80.83
2022-07-26T08:22:38.271Z,79.03
2022-07-26T08:23:38.260Z,79.60
2022-07-26T08:24:38.270Z,77.02
2022-07-26T08:25:55.105Z,78.36
2022-07-26T08:26:42.288Z,78.00
2022-07-26T08:27:41.083Z,78.78
2022-07-26T08:28:47.451Z,80.46
2022-07-26T08:29:39.173Z,81.51
2022-07-26T08:30:38.163Z,80.64
2022-07-26T08:31:38.228Z,81.38
2022-07-26T08:32:38.186Z,81.68
2022-07-26T08:33:38.418Z,82.19
2022-07-26T08:34:38.114Z,82.70
2022-07-26T08:35:38.093Z,82.86
2022-07-26T08:36:49.573Z,82.76
2022-07-26T08:37:39.065Z,82.56
2022-07-26T08:38:38.055Z,82.86
2022-07-26T08:39:38.036Z,82.05
2022-07-26T08:40:38.017Z,82.96
2022-07-26T08:41:38.007Z,82.96
2022-07-26T08:42:38.054Z,82.25
2022-07-26T08:43:46.779Z,82.01
2022-07-26T08:44:38.968Z,81.10
2022-07-26T08:45:40.955Z,81.30
2022-07-26T08:46:40.977Z,80.84
2022-07-26T08:47:50.299Z,80.24
2022-07-26T08:48:38.981Z,81.15
2022-07-26T08:49:37.940Z,81.75
2022-07-26T08:50:37.880Z,81.65
2022-07-26T08:51:37.861Z,80.70
2022-07-26T08:52:37.862Z,80.70
2022-07-26T08:53:37.832Z,79.43
2022-07-26T08:54:37.833Z,80.60
2022-07-26T08:56:04.285Z,81.10
2022-07-26T08:56:38.802Z,79.60
2022-07-26T08:57:37.783Z,78.89
2022-07-26T08:58:37.775Z,78.89
2022-07-26T08:59:37.772Z,79.60
2022-07-26T09:00:37.782Z,80.50
2022-07-26T09:01:37.755Z,80.24
2022-07-26T09:02:37.724Z,79.53
2022-07-26T09:03:37.937Z,80.64
2022-07-26T09:04:43.981Z,80.54
2022-07-26T09:05:41.681Z,80.44
2022-07-26T09:06:40.668Z,80.50
2022-07-26T09:07:37.672Z,78.89
2022-07-26T09:08:37.641Z,79.86
2022-07-26T09:09:37.617Z,78.51
2022-07-26T09:10:39.313Z,77.97
2022-07-26T09:11:37.616Z,76.56
2022-07-26T09:12:37.588Z,75.02
2022-07-26T09:13:37.558Z,75.22
2022-07-26T09:14:37.550Z,73.47
2022-07-26T09:15:37.582Z,71.97
2022-07-26T09:16:40.085Z,72.87
2022-07-26T09:17:37.500Z,73.74
2022-07-26T09:18:37.492Z,72.53
2022-07-26T09:19:37.514Z,71.67
2022-07-26T09:20:37.462Z,73.51
2022-07-26T09:21:37.443Z,72.64
2022-07-26T09:22:37.455Z,74.29
2022-07-26T09:23:37.425Z,74.42
2022-07-26T09:24:37.417Z,75.02
2022-07-26T09:25:40.441Z,75.76
2022-07-26T09:26:40.399Z,74.86
2022-07-26T09:27:37.400Z,73.85
2022-07-26T09:28:37.357Z,73.95
2022-07-26T09:29:38.337Z,73.05
2022-07-26T09:30:37.374Z,73.52
2022-07-26T09:31:37.367Z,73.18
2022-07-26T09:32:37.341Z,72.14
2022-07-26T09:33:37.290Z,71.83
2022-07-26T09:34:37.269Z,72.10
2022-07-26T09:35:52.628Z,71.60
2022-07-26T09:36:38.274Z,71.77
2022-07-26T09:37:37.220Z,71.23
2022-07-26T09:38:37.239Z,69.02
2022-07-26T09:39:37.201Z,69.85
2022-07-26T09:40:37.200Z,69.18
2022-07-26T09:41:37.181Z,70.39
2022-07-26T09:42:37.190Z,69.12
2022-07-26T09:43:37.172Z,69.56
2022-07-26T09:44:37.354Z,70.19
2022-07-26T09:45:41.114Z,70.96
2022-07-26T09:46:40.188Z,71.56
2022-07-26T09:47:37.095Z,70.63
2022-07-26T09:49:07.143Z,69.38
2022-07-26T09:49:40.290Z,70.79
2022-07-26T09:50:37.054Z,70.19
2022-07-26T09:51:37.025Z,69.65
2022-07-26T09:52:37.016Z,69.52
2022-07-26T09:53:36.997Z,68.32
2022-07-26T09:54:37.018Z,69.49
2022-07-26T09:55:44.598Z,69.46
2022-07-26T09:56:37.999Z,68.12
2022-07-26T09:57:36.949Z,66.75
2022-07-26T09:58:36.930Z,66.78
2022-07-26T09:59:36.918Z,68.18
2022-07-26T10:00:36.909Z,67.82
2022-07-26T10:01:36.964Z,67.65
2022-07-26T10:02:36.941Z,69.35
2022-07-26T10:03:36.862Z,68.38
2022-07-26T10:04:36.853Z,69.89
2022-07-26T10:05:39.832Z,70.70
2022-07-26T10:06:39.863Z,69.49
2022-07-26T10:07:36.822Z,69.18
2022-07-26T10:08:36.823Z,69.79
2022-07-26T10:09:36.803Z,68.88
2022-07-26T10:10:36.779Z,68.68
2022-07-26T10:11:36.759Z,69.29
2022-07-26T10:12:36.746Z,70.36
2022-07-26T10:13:36.797Z,70.03
2022-07-26T10:14:36.741Z,69.59
2022-07-26T10:15:36.763Z,69.29
2022-07-26T10:16:36.697Z,68.38
2022-07-26T10:17:36.681Z,68.59
2022-07-26T10:18:36.666Z,68.79
2022-07-26T10:19:41.232Z,69.29
2022-07-26T10:20:37.640Z,68.82
2022-07-26T10:21:36.630Z,68.92
2022-07-26T10:22:36.612Z,68.12
2022-07-26T10:23:36.597Z,68.55
2022-07-26T10:24:36.592Z,67.88
2022-07-26T10:25:39.612Z,68.11
2022-07-26T10:26:39.609Z,68.41
2022-07-26T10:27:36.545Z,69.56
2022-07-26T10:28:36.537Z,69.62
2022-07-26T10:29:36.515Z,69.22
2022-07-26T10:30:36.503Z,69.02
2022-07-26T10:31:36.583Z,69.42
2022-07-26T10:32:36.477Z,68.91
2022-07-26T10:33:36.466Z,70.32
2022-07-26T10:34:36.455Z,69.79
2022-07-26T10:35:36.525Z,70.36
2022-07-26T10:36:36.430Z,70.83
2022-07-26T10:37:36.461Z,69.02
2022-07-26T10:38:37.396Z,68.72
2022-07-26T10:39:36.385Z,67.71
2022-07-26T10:40:36.374Z,67.41
2022-07-26T10:41:36.395Z,66.41
2022-07-26T10:42:36.348Z,66.20
2022-07-26T10:43:43.476Z,65.94
2022-07-26T10:44:37.319Z,66.34
2022-07-26T10:45:39.301Z,65.70
2022-07-26T10:46:39.479Z,66.08
2022-07-26T10:47:36.280Z,65.54
2022-07-26T10:48:36.334Z,64.21
2022-07-26T10:49:36.325Z,64.18
2022-07-26T10:50:36.242Z,62.34
2022-07-26T10:51:36.227Z,61.54
2022-07-26T10:52:36.227Z,62.47
2022-07-26T10:53:36.193Z,62.70
2022-07-26T10:54:36.183Z,64.64
2022-07-26T10:55:36.206Z,65.17
2022-07-26T10:56:36.186Z,66.51
2022-07-26T10:57:36.143Z,65.97
2022-07-26T10:58:36.136Z,67.21
2022-07-26T11:00:37.177Z,67.34
2022-07-26T11:01:36.209Z,67.24
2022-07-26T11:02:36.171Z,67.94
2022-07-26T11:03:38.716Z,68.04
2022-07-26T11:04:36.058Z,67.81
2022-07-26T11:05:39.059Z,69.09
2022-07-26T11:06:39.049Z,68.18
2022-07-26T11:07:36.047Z,68.55
2022-07-26T11:08:36.004Z,68.55
2022-07-26T11:09:35.979Z,66.91
2022-07-26T11:10:35.972Z,65.88
2022-07-26T11:11:36.116Z,64.97
2022-07-26T11:12:35.943Z,67.48
2022-07-26T11:13:35.923Z,67.25
2022-07-26T11:14:35.922Z,64.67
2022-07-26T11:15:35.935Z,66.61
2022-07-26T11:16:35.893Z,66.84
2022-07-26T11:17:35.905Z,67.44
2022-07-26T11:18:35.901Z,67.85
2022-07-26T11:19:35.856Z,67.31
2022-07-26T11:20:35.836Z,67.38
2022-07-26T11:21:35.827Z,68.08
2022-07-26T11:22:35.836Z,65.37
2022-07-26T11:23:35.829Z,65.10
2022-07-26T11:24:35.784Z,65.91
2022-07-26T11:25:38.767Z,65.33
2022-07-26T11:26:38.770Z,65.44
2022-07-26T11:27:35.738Z,65.84
2022-07-26T11:28:35.750Z,67.35
2022-07-26T11:29:38.628Z,67.71
2022-07-26T11:30:36.702Z,66.28
2022-07-26T11:31:49.857Z,66.31
2022-07-26T11:32:36.755Z,66.11
2022-07-26T11:33:35.660Z,65.91
2022-07-26T11:34:35.661Z,66.81
2022-07-26T11:35:35.652Z,66.00
2022-07-26T11:36:35.615Z,66.41
2022-07-26T11:37:35.633Z,65.80
2022-07-26T11:38:35.593Z,66.03
2022-07-26T11:39:35.576Z,66.54
2022-07-26T11:40:35.619Z,66.14
2022-07-26T11:41:35.576Z,65.20
2022-07-26T11:42:35.566Z,64.70
2022-07-26T11:43:35.526Z,63.49
2022-07-26T11:44:35.516Z,63.90
2022-07-26T11:45:38.503Z,63.90
2022-07-26T11:46:38.678Z,65.34
2022-07-26T11:47:35.471Z,64.71
2022-07-26T11:48:35.477Z,65.85
2022-07-26T11:50:00.793Z,61.71
2022-07-26T11:50:36.430Z,59.50
2022-07-26T11:51:35.409Z,60.21
2022-07-26T11:52:35.450Z,59.31
2022-07-26T11:53:35.392Z,59.61
2022-07-26T11:54:35.381Z,59.78
2022-07-26T11:55:35.361Z,59.85
2022-07-26T11:56:35.351Z,59.31
2022-07-26T11:57:35.332Z,59.83
2022-07-26T11:58:35.382Z,60.36
2022-07-26T11:59:35.322Z,59.99
2022-07-26T12:00:35.294Z,61.90
2022-07-26T12:01:35.274Z,61.52
2022-07-26T12:02:35.266Z,60.22
2022-07-26T12:03:35.254Z,62.43
2022-07-26T12:04:35.381Z,62.80
2022-07-26T12:05:38.259Z,62.77
2022-07-26T12:06:38.242Z,62.67
2022-07-26T12:07:35.255Z,61.70
2022-07-26T12:08:35.198Z,61.72
2022-07-26T12:09:35.167Z,61.76
2022-07-26T12:10:35.157Z,61.05
2022-07-26T12:11:35.148Z,62.46
2022-07-26T12:12:35.133Z,61.72
2022-07-26T12:13:39.752Z,62.00
2022-07-26T12:14:36.122Z,61.40
2022-07-26T12:15:35.125Z,62.47
2022-07-26T12:16:35.203Z,60.66
2022-07-26T12:17:35.747Z,59.26
2022-07-26T12:18:35.073Z,59.66
2022-07-26T12:19:35.032Z,59.56
2022-07-26T12:20:35.024Z,57.66
2022-07-26T12:21:35.031Z,57.56
2022-07-26T12:22:35.060Z,55.65
2022-07-26T12:23:34.974Z,57.13
2022-07-26T12:24:34.966Z,56.70
2022-07-26T12:25:37.968Z,55.93
2022-07-26T12:26:38.967Z,57.80
2022-07-26T12:27:34.941Z,56.70
2022-07-26T12:28:34.939Z,57.23
2022-07-26T12:29:34.898Z,60.48
2022-07-26T12:30:34.962Z,58.45
2022-07-26T12:31:34.973Z,57.32
2022-07-26T12:32:34.865Z,56.92
2022-07-26T12:33:34.855Z,54.72
2022-07-26T12:34:34.882Z,54.35
2022-07-26T12:35:34.822Z,54.47
2022-07-26T12:36:34.806Z,54.05
2022-07-26T12:37:40.343Z,54.05
2022-07-26T12:38:35.780Z,53.67
2022-07-26T12:39:34.794Z,55.10
2022-07-26T12:40:34.755Z,56.10
2022-07-26T12:41:34.794Z,56.90
2022-07-26T12:42:34.787Z,59.53
2022-07-26T12:43:34.715Z,56.93
2022-07-26T12:44:34.699Z,55.95
2022-07-26T12:45:37.718Z,56.78
2022-07-26T12:46:37.746Z,56.28
2022-07-26T12:47:34.657Z,56.61
2022-07-26T12:48:34.704Z,57.11
2022-07-26T12:49:34.676Z,56.13
2022-07-26T12:50:34.658Z,57.06
2022-07-26T12:51:34.614Z,57.70
2022-07-26T12:52:34.592Z,58.09
2022-07-26T12:53:41.591Z,57.92